Time;durP1;ratioP1;P1;durP2;ratioP2;P2;SDS_P1;SDS_P2;PMS_P1;PMS_P2;Temp;Humidity;BMP_temperature;BMP_pressure;BME280_temperature;BME280_humidity;BME280_pressure;Samples;Min_cycle;Max_cycle;Signal;HPM_P1;HPM_P2
2021/10/06 00:04:58;;;;;;;14.40;7.78;;;;;;;12.37;100.00;99056.19;4569091;77;28470;-78
2021/10/06 00:10:59;;;;;;;16.70;7.75;;;;;;;12.37;100.00;99052.14;4566538;77;28504;-79
2021/10/06 00:17:01;;;;;;;11.00;7.10;;;;;;;12.30;100.00;99056.34;4560918;77;28540;-78
2021/10/06 00:23:02;;;;;;;14.20;6.97;;;;;;;12.30;100.00;99044.72;4552329;76;28549;-78
2021/10/06 00:29:05;;;;;;;12.30;7.42;;;;;;;12.39;100.00;99037.88;4540009;76;28507;-78
2021/10/06 00:35:07;;;;;;;12.30;7.28;;;;;;;12.33;100.00;99045.06;4547508;77;28459;-79
2021/10/06 00:41:08;;;;;;;15.43;8.10;;;;;;;12.36;100.00;99037.83;4558184;77;28484;-78
2021/10/06 00:47:12;;;;;;;12.85;7.17;;;;;;;12.25;100.00;99050.84;4562215;76;28526;-78
2021/10/06 00:53:14;;;;;;;11.05;6.90;;;;;;;12.13;100.00;99045.49;4556673;76;28554;-79
2021/10/06 00:59:15;;;;;;;13.28;6.60;;;;;;;12.25;100.00;99033.31;4564686;77;28472;-78
2021/10/06 01:05:17;;;;;;;11.38;7.05;;;;;;;12.34;100.00;99035.08;4552971;76;28479;-79
2021/10/06 01:11:19;;;;;;;13.03;7.40;;;;;;;12.34;100.00;99035.08;4576778;76;28479;-79
2021/10/06 01:17:20;;;;;;;13.62;7.87;;;;;;;12.43;100.00;99026.08;4562530;76;28502;-78
2021/10/06 01:23:22;;;;;;;12.55;6.47;;;;;;;12.32;100.00;99021.86;4556223;77;28455;-79
2021/10/06 01:29:24;;;;;;;12.40;7.40;;;;;;;12.55;100.00;99021.43;4566986;77;28529;-79
2021/10/06 01:35:25;;;;;;;10.70;6.37;;;;;;;12.71;100.00;99020.34;4566472;76;28495;-79
2021/10/06 01:41:36;;;;;;;12.63;7.80;;;;;;;12.81;100.00;99023.20;4560513;76;28439;-79
2021/10/06 01:47:37;;;;;;;12.40;7.00;;;;;;;12.77;100.00;99046.32;4564798;77;28480;-79
2021/10/06 01:53:40;;;;;;;12.50;7.15;;;;;;;12.95;100.00;99047.94;4541822;76;28469;-79
2021/10/06 01:59:44;;;;;;;13.50;7.12;;;;;;;12.99;100.00;99049.10;4573509;76;28464;-79
2021/10/06 02:05:46;;;;;;;13.68;6.58;;;;;;;13.00;100.00;99049.90;4595833;76;28458;-79
2021/10/06 02:11:47;;;;;;;11.48;7.53;;;;;;;12.97;100.00;99055.28;4567780;77;28537;-79
2021/10/06 02:17:49;;;;;;;10.35;7.10;;;;;;;13.13;100.00;99052.28;4552945;76;28586;-80
2021/10/06 02:23:50;;;;;;;10.80;6.97;;;;;;;13.09;100.00;99049.25;4586379;77;28536;-79
2021/10/06 02:29:51;;;;;;;10.18;6.28;;;;;;;13.03;100.00;99035.94;4588372;77;28577;-78
2021/10/06 02:35:53;;;;;;;15.10;7.37;;;;;;;13.36;100.00;99031.53;4585484;77;28540;-79
2021/10/06 02:41:54;;;;;;;16.23;8.80;;;;;;;13.16;100.00;99026.13;4574380;77;28527;-78
2021/10/06 02:47:55;;;;;;;11.88;7.90;;;;;;;13.25;100.00;99025.16;4586058;77;28472;-79
2021/10/06 02:53:57;;;;;;;16.12;8.53;;;;;;;13.15;100.00;99027.72;4568353;77;28469;-79
2021/10/06 02:59:58;;;;;;;13.55;8.03;;;;;;;13.05;100.00;99020.30;4589029;77;28507;-79
2021/10/06 03:06:00;;;;;;;13.22;7.62;;;;;;;13.17;100.00;99027.77;4589898;77;28465;-78
2021/10/06 03:12:01;;;;;;;13.53;7.75;;;;;;;13.30;100.00;99030.64;4594975;77;28506;-78
2021/10/06 03:18:03;;;;;;;11.90;7.95;;;;;;;13.32;100.00;99035.26;4589612;77;28465;-78
2021/10/06 03:24:05;;;;;;;13.62;8.33;;;;;;;13.04;100.00;99016.78;4590173;77;28602;-78
2021/10/06 03:30:08;;;;;;;17.48;9.13;;;;;;;13.21;100.00;99037.53;4590883;77;28445;-79
2021/10/06 03:36:09;;;;;;;17.65;9.33;;;;;;;13.03;100.00;99059.67;4591344;77;28497;-77
2021/10/06 03:42:11;;;;;;;16.62;9.20;;;;;;;13.00;100.00;99061.53;4590793;77;28455;-79
2021/10/06 03:48:13;;;;;;;16.25;8.83;;;;;;;12.97;100.00;99064.18;4589910;77;28503;-79
2021/10/06 03:54:14;;;;;;;17.55;9.40;;;;;;;13.13;100.00;99071.17;4561084;77;28548;-79
2021/10/06 04:00:16;;;;;;;18.85;9.88;;;;;;;13.14;100.00;99076.86;4568681;76;28639;-78
2021/10/06 04:06:17;;;;;;;18.15;10.08;;;;;;;13.22;100.00;99087.23;4589175;77;28449;-78
2021/10/06 04:12:18;;;;;;;18.52;9.23;;;;;;;13.24;100.00;99088.33;4588813;77;28507;-78
2021/10/06 04:18:20;;;;;;;19.90;10.00;;;;;;;13.09;100.00;99088.39;4573813;76;28539;-77
2021/10/06 04:24:21;;;;;;;16.35;8.53;;;;;;;13.14;100.00;99097.10;4597767;77;28582;-77
2021/10/06 04:30:23;;;;;;;16.23;9.13;;;;;;;13.20;100.00;99100.14;4591997;77;28466;-79
2021/10/06 04:36:24;;;;;;;15.08;8.78;;;;;;;13.19;100.00;99105.27;4570846;77;28516;-81
2021/10/06 04:42:25;;;;;;;16.50;9.30;;;;;;;13.17;100.00;99124.11;4572824;77;28479;-78
2021/10/06 04:48:27;;;;;;;15.95;8.98;;;;;;;13.32;100.00;99118.13;4573314;77;28447;-80
2021/10/06 04:54:28;;;;;;;15.53;9.00;;;;;;;13.16;100.00;99118.43;4590931;77;28538;-80
2021/10/06 05:00:30;;;;;;;18.57;9.13;;;;;;;13.18;100.00;99127.13;4597706;77;28429;-81
2021/10/06 05:06:31;;;;;;;16.80;9.38;;;;;;;13.09;100.00;99126.18;4598842;77;28457;-79
2021/10/06 05:12:32;;;;;;;14.68;8.95;;;;;;;13.11;100.00;99130.80;4598215;77;28471;-79
2021/10/06 05:18:34;;;;;;;15.90;8.58;;;;;;;13.07;100.00;99139.63;4567828;77;28526;-79
2021/10/06 05:24:35;;;;;;;15.38;9.20;;;;;;;13.11;100.00;99136.19;4530680;77;28499;-81
2021/10/06 05:30:36;;;;;;;16.12;9.33;;;;;;;13.11;100.00;99142.11;4528725;77;28484;-79
2021/10/06 05:36:38;;;;;;;15.43;9.08;;;;;;;13.16;100.00;99154.87;4525085;77;28543;-79
2021/10/06 05:42:39;;;;;;;16.20;8.30;;;;;;;13.14;100.00;99152.95;4526017;77;28432;-79
2021/10/06 05:48:40;;;;;;;13.65;7.90;;;;;;;13.22;100.00;99165.53;4480705;78;28612;-79
2021/10/06 05:54:41;;;;;;;14.05;8.35;;;;;;;13.20;100.00;99164.94;4537604;78;28469;-79
2021/10/06 06:00:43;;;;;;;16.55;7.97;;;;;;;13.31;100.00;99175.38;4535349;77;28530;-79
2021/10/06 06:06:45;;;;;;;17.15;9.08;;;;;;;13.28;100.00;99183.98;4516213;77;28514;-81
2021/10/06 06:12:46;;;;;;;14.20;8.40;;;;;;;13.30;100.00;99199.40;4532468;77;28459;-77
2021/10/06 06:18:47;;;;;;;13.72;8.33;;;;;;;13.31;100.00;99201.03;4523758;78;28545;-78
2021/10/06 06:24:49;;;;;;;15.13;8.43;;;;;;;13.24;100.00;99208.47;4533363;78;28464;-78
2021/10/06 06:30:50;;;;;;;18.73;9.40;;;;;;;13.41;100.00;99203.06;4581090;77;28531;-81
2021/10/06 06:36:52;;;;;;;21.02;9.15;;;;;;;13.50;100.00;99211.08;4560843;78;28530;-82
2021/10/06 06:42:53;;;;;;;18.85;9.05;;;;;;;13.41;100.00;99196.31;4582020;77;28632;-82
2021/10/06 06:48:55;;;;;;;23.47;9.18;;;;;;;13.76;100.00;99218.23;4518757;77;28539;-82
2021/10/06 06:54:56;;;;;;;15.80;8.28;;;;;;;14.00;100.00;99219.38;4545267;77;28439;-80
2021/10/06 07:00:57;;;;;;;16.12;8.68;;;;;;;13.79;100.00;99227.19;4525094;77;28507;-79
2021/10/06 07:06:59;;;;;;;14.68;8.70;;;;;;;13.53;100.00;99228.13;4546530;78;28427;-80
2021/10/06 07:13:01;;;;;;;16.42;8.75;;;;;;;13.59;100.00;99239.03;4522202;77;28461;-79
2021/10/06 07:19:02;;;;;;;20.85;9.98;;;;;;;13.57;100.00;99256.83;4549589;77;28500;-82
2021/10/06 07:25:05;;;;;;;15.98;8.53;;;;;;;13.91;100.00;99266.81;4560437;77;28455;-79
2021/10/06 07:31:07;;;;;;;14.60;8.23;;;;;;;14.25;100.00;99266.73;4566334;77;28491;-79
2021/10/06 07:37:08;;;;;;;17.25;7.95;;;;;;;14.39;100.00;99269.90;4577255;77;28487;-79
2021/10/06 07:43:10;;;;;;;15.53;7.25;;;;;;;14.45;100.00;99266.73;4562584;77;28503;-79
2021/10/06 07:49:13;;;;;;;18.57;8.70;;;;;;;14.32;100.00;99273.34;4575889;77;28436;-79
2021/10/06 07:55:14;;;;;;;19.45;8.70;;;;;;;14.24;100.00;99282.68;4554919;77;28513;-79
2021/10/06 08:01:16;;;;;;;23.95;8.93;;;;;;;14.65;100.00;99287.83;4585083;77;28492;-78
2021/10/06 08:07:17;;;;;;;20.48;9.00;;;;;;;14.59;100.00;99292.36;4550693;77;28529;-80
2021/10/06 08:13:19;;;;;;;18.30;8.90;;;;;;;14.61;100.00;99290.73;4539245;77;28548;-80
2021/10/06 08:19:22;;;;;;;22.70;8.75;;;;;;;14.43;100.00;99291.34;4581997;77;28513;-78
2021/10/06 08:25:23;;;;;;;21.85;8.88;;;;;;;14.66;100.00;99296.22;4566184;76;28575;-80
2021/10/06 08:31:25;;;;;;;16.30;8.53;;;;;;;14.87;100.00;99312.19;4615853;76;28475;-81
2021/10/06 08:37:26;;;;;;;19.07;8.95;;;;;;;14.76;100.00;99307.72;4576247;76;28466;-81
2021/10/06 08:43:27;;;;;;;16.27;8.75;;;;;;;14.80;100.00;99306.16;4595366;77;28421;-84
2021/10/06 08:49:32;;;;;;;13.43;8.65;;;;;;;14.67;100.00;99301.91;4580670;77;28448;-83
2021/10/06 08:55:34;;;;;;;15.95;8.68;;;;;;;14.73;100.00;99300.92;4573624;76;28439;-78
2021/10/06 09:01:43;;;;;;;20.65;10.50;;;;;;;14.93;100.00;99304.94;4570059;76;28508;-79
2021/10/06 09:08:02;;;;;;;21.87;10.58;;;;;;;15.03;100.00;99305.05;4548848;76;28538;-80
2021/10/06 09:14:06;;;;;;;19.67;10.63;;;;;;;15.24;100.00;99312.59;4571614;76;28465;-78
2021/10/06 09:20:10;;;;;;;16.07;9.95;;;;;;;15.16;100.00;99317.94;4562002;76;28472;-78
2021/10/06 09:26:14;;;;;;;16.40;9.75;;;;;;;15.23;100.00;99321.23;4556358;76;28496;-79
2021/10/06 09:32:44;;;;;;;17.00;10.15;;;;;;;15.32;100.00;99317.00;4563651;76;28495;-79
2021/10/06 09:38:53;;;;;;;19.10;10.32;;;;;;;15.33;100.00;99320.55;4562065;76;28529;-81
2021/10/06 09:44:58;;;;;;;31.33;11.55;;;;;;;14.36;100.00;99325.30;4570743;77;28437;-82
2021/10/06 09:51:06;;;;;;;23.73;11.70;;;;;;;14.42;100.00;99326.74;4579041;76;28487;-77
2021/10/06 09:57:07;;;;;;;21.75;11.30;;;;;;;14.58;100.00;99331.83;4574404;76;28444;-77
2021/10/06 10:03:10;;;;;;;24.63;11.03;;;;;;;14.64;100.00;99326.78;4560377;76;28578;-81
2021/10/06 10:09:14;;;;;;;15.45;9.80;;;;;;;14.47;100.00;99328.16;4566869;76;28436;-77
2021/10/06 10:15:19;;;;;;;21.87;10.68;;;;;;;14.61;100.00;99344.84;4564023;76;28460;-77
2021/10/06 10:21:20;;;;;;;21.52;11.05;;;;;;;14.61;100.00;99343.49;4561140;76;28534;-76
2021/10/06 10:27:24;;;;;;;18.92;11.05;;;;;;;14.83;100.00;99342.19;4568985;77;28451;-80
2021/10/06 10:33:47;;;;;;;16.70;10.72;;;;;;;14.85;100.00;99340.05;4576734;76;28540;-79
2021/10/06 10:39:51;;;;;;;17.60;10.38;;;;;;;15.09;100.00;99340.33;4458918;77;28459;-78
2021/10/06 10:46:12;;;;;;;14.83;9.65;;;;;;;15.28;100.00;99334.02;4479124;78;28437;-79
2021/10/06 10:52:15;;;;;;;16.27;11.00;;;;;;;14.96;100.00;99332.05;4462265;78;28452;-78
2021/10/06 10:58:36;;;;;;;18.27;10.43;;;;;;;15.16;100.00;99331.48;4470949;78;28477;-80
2021/10/06 11:04:37;;;;;;;16.80;10.53;;;;;;;15.30;100.00;99339.47;4492877;78;28545;-82
2021/10/06 11:10:38;;;;;;;15.38;10.05;;;;;;;15.43;100.00;99336.06;4473047;78;28510;-80
2021/10/06 11:17:16;;;;;;;16.70;10.15;;;;;;;15.66;100.00;99347.13;4466158;78;28486;-80
2021/10/06 11:23:39;;;;;;;15.43;9.58;;;;;;;15.58;100.00;99353.84;4446237;78;28517;-79
2021/10/06 11:29:45;;;;;;;16.32;9.88;;;;;;;15.68;100.00;99339.55;4461976;78;28539;-82
2021/10/06 11:35:46;;;;;;;15.70;10.67;;;;;;;15.75;100.00;99334.74;4448375;78;28565;-80
2021/10/06 11:41:51;;;;;;;19.15;10.60;;;;;;;15.53;100.00;99337.52;4443188;77;28468;-83
2021/10/06 11:47:52;;;;;;;15.60;9.68;;;;;;;15.36;100.00;99330.86;4462766;78;28534;-80
2021/10/06 11:53:54;;;;;;;13.90;9.95;;;;;;;15.71;100.00;99336.31;4464462;78;28534;-81
2021/10/06 11:59:55;;;;;;;18.60;10.55;;;;;;;15.41;100.00;99338.22;4568644;76;28457;-78
2021/10/06 12:05:57;;;;;;;20.25;9.68;;;;;;;15.47;100.00;99343.42;4547562;75;28521;-80
2021/10/06 12:12:01;;;;;;;18.67;10.13;;;;;;;15.00;100.00;99329.94;4547250;77;28461;-79
2021/10/06 12:18:05;;;;;;;19.92;10.28;;;;;;;14.44;100.00;99336.25;4551136;76;28467;-79
2021/10/06 12:24:20;;;;;;;16.45;8.93;;;;;;;14.92;100.00;99345.27;4554749;77;28464;-80
2021/10/06 12:30:29;;;;;;;17.48;9.10;;;;;;;14.88;100.00;99334.12;4551736;76;28464;-80
2021/10/06 12:36:31;;;;;;;16.32;9.15;;;;;;;14.59;100.00;99351.88;4550470;77;28518;-80
2021/10/06 12:42:33;;;;;;;17.15;9.43;;;;;;;14.67;100.00;99333.03;4536509;77;28541;-81
2021/10/06 12:48:45;;;;;;;20.20;9.85;;;;;;;14.59;100.00;99342.41;4546660;76;28502;-79
2021/10/06 12:54:46;;;;;;;14.73;8.75;;;;;;;14.47;100.00;99342.52;4535840;77;28523;-78
2021/10/06 13:00:48;;;;;;;16.67;8.68;;;;;;;14.67;100.00;99347.91;4555749;76;28448;-78
2021/10/06 13:06:51;;;;;;;18.90;10.00;;;;;;;14.46;100.00;99353.05;4552266;77;28470;-78
2021/10/06 13:12:52;;;;;;;17.02;9.63;;;;;;;14.26;100.00;99359.52;4557727;76;28439;-80
2021/10/06 13:18:54;;;;;;;16.57;8.98;;;;;;;14.25;100.00;99357.33;4561619;77;28492;-80
2021/10/06 13:24:56;;;;;;;16.42;9.20;;;;;;;14.13;100.00;99345.80;4547395;76;28507;-79
2021/10/06 13:30:58;;;;;;;21.68;9.48;;;;;;;14.16;100.00;99352.88;4558511;77;28550;-79
2021/10/06 13:36:59;;;;;;;13.88;9.00;;;;;;;14.31;100.00;99366.34;4549191;76;28483;-79
2021/10/06 13:43:01;;;;;;;14.07;8.85;;;;;;;14.31;100.00;99372.58;4544213;77;28478;-78
2021/10/06 13:49:03;;;;;;;15.65;9.28;;;;;;;14.07;100.00;99378.69;4544131;78;28535;-78
2021/10/06 13:55:05;;;;;;;15.18;9.38;;;;;;;14.06;100.00;99381.11;4546904;76;28441;-78
2021/10/06 14:01:07;;;;;;;16.00;9.73;;;;;;;14.08;100.00;99384.38;4559336;76;28459;-79
2021/10/06 14:07:08;;;;;;;16.35;9.85;;;;;;;14.12;100.00;99387.42;4540260;77;28531;-79
2021/10/06 14:13:09;;;;;;;19.12;9.45;;;;;;;14.04;100.00;99388.11;4552511;77;28473;-81
2021/10/06 14:19:12;;;;;;;15.58;9.00;;;;;;;13.90;100.00;99396.26;4568121;77;28475;-79
2021/10/06 14:25:15;;;;;;;14.90;9.23;;;;;;;14.03;100.00;99396.48;4545896;77;28493;-76
2021/10/06 14:31:16;;;;;;;16.25;9.00;;;;;;;13.92;100.00;99400.88;4553205;76;28466;-79
2021/10/06 14:37:18;;;;;;;16.67;9.68;;;;;;;13.93;100.00;99405.22;4587489;77;28484;-80
2021/10/06 14:43:19;;;;;;;20.70;9.70;;;;;;;13.88;100.00;99403.25;4591101;76;28429;-81
2021/10/06 14:49:26;;;;;;;16.90;9.70;;;;;;;13.85;100.00;99406.45;4579097;77;28473;-80
2021/10/06 14:55:28;;;;;;;16.25;9.48;;;;;;;13.51;100.00;99411.79;4558201;76;28611;-79
2021/10/06 15:01:30;;;;;;;16.67;9.98;;;;;;;13.60;100.00;99408.99;4562976;77;28443;-82
2021/10/06 15:07:31;;;;;;;15.75;10.38;;;;;;;13.49;100.00;99412.56;4552835;76;28447;-84
2021/10/06 15:13:32;;;;;;;15.10;9.55;;;;;;;13.37;100.00;99414.73;4562891;77;28493;-80
2021/10/06 15:19:35;;;;;;;16.02;10.85;;;;;;;13.58;100.00;99419.75;4548558;77;28528;-83
2021/10/06 15:25:37;;;;;;;15.85;10.25;;;;;;;13.55;100.00;99420.23;4562168;76;28548;-82
2021/10/06 15:31:39;;;;;;;13.43;9.65;;;;;;;13.49;100.00;99416.63;4576492;76;28492;-78
2021/10/06 15:37:40;;;;;;;19.82;10.90;;;;;;;13.55;100.00;99428.34;4572744;76;28513;-81
2021/10/06 15:43:42;;;;;;;18.50;10.10;;;;;;;13.58;100.00;99430.00;4539314;76;28545;-82
2021/10/06 15:49:46;;;;;;;17.05;11.30;;;;;;;13.63;100.00;99430.63;4568040;76;28459;-82
2021/10/06 15:55:47;;;;;;;18.75;11.28;;;;;;;13.52;100.00;99431.78;4569859;76;28443;-80
2021/10/06 16:01:49;;;;;;;16.85;11.33;;;;;;;13.47;100.00;99434.41;4561783;77;28455;-82
2021/10/06 16:08:01;;;;;;;15.90;10.88;;;;;;;13.45;100.00;99436.53;4557370;76;28464;-84
2021/10/06 16:14:03;;;;;;;17.42;10.60;;;;;;;13.29;100.00;99439.95;4548418;77;28527;-82
2021/10/06 16:20:07;;;;;;;15.68;10.63;;;;;;;13.39;100.00;99457.70;4555663;76;28590;-80
2021/10/06 16:26:10;;;;;;;19.65;11.03;;;;;;;13.42;100.00;99461.81;4550285;76;28484;-79
2021/10/06 16:32:20;;;;;;;16.40;11.18;;;;;;;13.45;100.00;99464.89;4538118;77;28468;-81
2021/10/06 16:38:21;;;;;;;21.97;13.38;;;;;;;13.55;100.00;99471.02;4575869;77;28537;-82
2021/10/06 16:44:22;;;;;;;18.32;12.03;;;;;;;13.50;100.00;99474.98;4443285;78;28440;-80
2021/10/06 16:50:24;;;;;;;17.42;11.80;;;;;;;13.51;100.00;99479.32;4561791;76;28523;-81
2021/10/06 16:56:25;;;;;;;18.02;12.03;;;;;;;13.46;100.00;99482.73;4587559;77;28488;-82
2021/10/06 17:02:27;;;;;;;18.52;11.90;;;;;;;13.41;100.00;99492.59;4491053;77;28503;-78
2021/10/06 17:08:28;;;;;;;19.75;12.10;;;;;;;13.45;100.00;99491.06;4563810;77;28533;-79
2021/10/06 17:14:29;;;;;;;19.35;12.10;;;;;;;13.56;100.00;99491.56;4555691;76;28470;-78
2021/10/06 17:20:33;;;;;;;17.20;11.78;;;;;;;13.59;100.00;99494.32;4533033;77;28533;-83
2021/10/06 17:26:34;;;;;;;20.70;11.15;;;;;;;13.59;100.00;99498.37;4539911;77;28884;-78
2021/10/06 17:32:37;;;;;;;18.77;11.80;;;;;;;13.53;100.00;99500.95;4493281;78;28504;-82
2021/10/06 17:38:39;;;;;;;18.42;12.07;;;;;;;13.61;100.00;99513.30;4461263;78;28449;-81
2021/10/06 17:44:42;;;;;;;19.50;11.97;;;;;;;13.60;100.00;99510.30;4462419;78;28506;-82
2021/10/06 17:50:44;;;;;;;17.45;11.83;;;;;;;13.45;100.00;99524.83;4556320;77;28505;-83
2021/10/06 17:56:49;;;;;;;21.12;12.80;;;;;;;13.49;100.00;99516.56;4620727;76;28475;-82
2021/10/06 18:02:51;;;;;;;19.42;11.53;;;;;;;13.32;100.00;99515.07;4567097;77;28424;-83
2021/10/06 18:08:52;;;;;;;18.48;11.45;;;;;;;13.29;100.00;99521.79;4574196;77;28442;-82
2021/10/06 18:14:54;;;;;;;20.17;12.73;;;;;;;13.31;100.00;99521.02;4561027;76;28509;-85
2021/10/06 18:20:57;;;;;;;20.35;13.38;;;;;;;13.04;100.00;99516.65;4539976;77;28694;-78
2021/10/06 18:26:58;;;;;;;18.82;13.35;;;;;;;13.21;100.00;99538.34;4536152;78;28514;-79
2021/10/06 18:33:01;;;;;;;20.00;13.68;;;;;;;13.27;100.00;99545.48;4540061;77;28469;-78
2021/10/06 18:39:05;;;;;;;21.25;14.28;;;;;;;13.06;100.00;99545.57;4528602;77;28454;-81
2021/10/06 18:45:07;;;;;;;22.22;12.78;;;;;;;13.02;100.00;99541.71;4578804;77;28512;-82
2021/10/06 18:51:08;;;;;;;20.92;14.73;;;;;;;13.05;100.00;99544.73;4561792;77;28431;-84
2021/10/06 18:57:09;;;;;;;23.85;14.87;;;;;;;12.99;100.00;99545.69;4516077;79;28473;-85
2021/10/06 19:03:11;;;;;;;23.75;15.75;;;;;;;12.85;100.00;99545.09;4527352;78;28427;-81
2021/10/06 19:09:12;;;;;;;25.37;16.37;;;;;;;12.73;100.00;99547.77;4556932;77;28511;-83
2021/10/06 19:15:13;;;;;;;25.68;16.00;;;;;;;12.76;100.00;99557.28;4534456;77;28454;-80
2021/10/06 19:21:17;;;;;;;22.80;14.58;;;;;;;12.85;100.00;99575.29;4530323;77;28478;-81
2021/10/06 19:27:21;;;;;;;23.60;14.85;;;;;;;12.95;100.00;99591.73;4520908;77;28546;-81
2021/10/06 19:33:22;;;;;;;22.90;14.98;;;;;;;13.05;100.00;99603.31;4582673;76;28491;-82
2021/10/06 19:39:24;;;;;;;24.60;15.60;;;;;;;13.11;100.00;99588.86;4549550;77;28503;-80
2021/10/06 19:45:27;;;;;;;25.02;16.85;;;;;;;12.93;100.00;99591.15;4592784;76;28485;-82
2021/10/06 19:51:28;;;;;;;27.80;17.42;;;;;;;12.91;100.00;99604.05;4590407;77;28479;-84
2021/10/06 19:57:30;;;;;;;26.30;16.52;;;;;;;12.96;100.00;99606.87;4588184;77;28453;-81
2021/10/06 20:03:37;;;;;;;26.73;17.20;;;;;;;12.99;100.00;99608.28;4564103;77;28464;-79
2021/10/06 20:09:40;;;;;;;26.42;17.42;;;;;;;12.83;100.00;99612.78;4560524;77;28498;-80
2021/10/06 20:15:42;;;;;;;24.50;16.60;;;;;;;12.89;100.00;99617.77;4579352;77;28571;-79
2021/10/06 20:21:44;;;;;;;26.73;16.35;;;;;;;12.91;100.00;99609.45;4566511;77;28520;-82
2021/10/06 20:27:45;;;;;;;28.62;17.27;;;;;;;12.92;100.00;99620.54;4567656;77;28509;-82
2021/10/06 20:39:53;;;;;;;24.82;16.48;;;;;;;12.75;100.00;99609.06;4597799;77;28507;-81
2021/10/06 20:45:54;;;;;;;27.40;16.62;;;;;;;12.95;100.00;99607.92;4564981;77;28465;-79
2021/10/06 20:51:56;;;;;;;26.90;17.40;;;;;;;13.01;100.00;99608.35;4563457;77;28471;-81
2021/10/06 20:57:58;;;;;;;27.07;17.75;;;;;;;12.93;100.00;99612.22;4570739;77;28492;-81
2021/10/06 21:03:59;;;;;;;28.55;17.90;;;;;;;13.09;100.00;99616.62;4562870;77;28445;-80
2021/10/06 21:10:01;;;;;;;23.85;16.30;;;;;;;12.95;100.00;99618.72;4540289;77;28455;-79
2021/10/06 21:16:03;;;;;;;28.17;17.85;;;;;;;13.02;100.00;99619.98;4575550;77;28425;-78
2021/10/06 21:22:04;;;;;;;28.92;17.15;;;;;;;13.14;100.00;99622.67;4568984;77;28440;-79
2021/10/06 21:28:06;;;;;;;25.72;16.37;;;;;;;13.09;100.00;99630.13;4449230;78;28431;-79
2021/10/06 21:34:08;;;;;;;23.65;16.00;;;;;;;13.16;100.00;99628.14;4455763;78;28606;-80
2021/10/06 21:40:15;;;;;;;27.48;17.55;;;;;;;13.11;100.00;99638.80;4449628;79;28445;-81
2021/10/06 21:46:17;;;;;;;24.40;16.00;;;;;;;13.02;100.00;99638.88;4478029;79;28555;-80
2021/10/06 21:52:18;;;;;;;24.70;15.95;;;;;;;13.06;100.00;99643.55;4487735;79;28481;-79
2021/10/06 21:58:20;;;;;;;25.70;17.75;;;;;;;13.02;100.00;99636.98;4561189;77;28477;-79
2021/10/06 22:04:22;;;;;;;27.40;17.10;;;;;;;13.05;100.00;99637.86;4557396;77;28445;-79
2021/10/06 22:10:26;;;;;;;27.62;18.30;;;;;;;12.72;100.00;99641.91;4564087;78;28498;-79
2021/10/06 22:16:27;;;;;;;25.72;17.52;;;;;;;12.71;100.00;99642.16;4562385;77;28445;-81
2021/10/06 22:22:29;;;;;;;27.70;17.75;;;;;;;12.79;100.00;99652.08;4580652;77;28903;-80
2021/10/06 22:28:30;;;;;;;31.17;17.98;;;;;;;12.63;100.00;99649.52;4572604;77;28452;-80
2021/10/06 22:34:32;;;;;;;29.55;18.55;;;;;;;12.67;100.00;99652.58;4576266;77;28521;-80
2021/10/06 22:40:33;;;;;;;32.78;19.55;;;;;;;12.74;100.00;99655.98;4597135;77;28453;-82
2021/10/06 22:46:35;;;;;;;32.73;20.55;;;;;;;12.72;100.00;99659.44;4588319;77;28452;-79
2021/10/06 22:52:36;;;;;;;36.20;21.15;;;;;;;12.75;100.00;99664.37;4544593;77;28483;-80
2021/10/06 22:58:38;;;;;;;33.00;20.40;;;;;;;12.78;100.00;99671.19;4586434;77;28487;-79
2021/10/06 23:04:39;;;;;;;31.52;19.23;;;;;;;12.78;100.00;99668.49;4599271;77;28445;-79
2021/10/06 23:10:41;;;;;;;32.40;19.40;;;;;;;12.86;100.00;99678.96;4599096;77;28452;-79
2021/10/06 23:16:42;;;;;;;30.25;18.87;;;;;;;12.79;100.00;99683.11;4594346;76;28498;-79
2021/10/06 23:22:44;;;;;;;32.20;19.30;;;;;;;12.84;100.00;99687.82;4551504;77;28549;-79
2021/10/06 23:28:45;;;;;;;31.12;20.10;;;;;;;12.92;100.00;99688.84;4589744;77;28535;-79
2021/10/06 23:34:47;;;;;;;32.40;20.50;;;;;;;12.85;100.00;99698.07;4589495;77;28500;-79
2021/10/06 23:40:48;;;;;;;30.52;18.40;;;;;;;12.93;100.00;99706.69;4588209;77;28578;-80
2021/10/06 23:46:50;;;;;;;31.60;19.52;;;;;;;12.90;100.00;99711.72;4585224;78;28485;-80
2021/10/06 23:52:57;;;;;;;30.25;18.85;;;;;;;12.96;100.00;99712.13;4582260;78;28508;-81
2021/10/06 23:58:58;;;;;;;30.52;19.45;;;;;;;12.96;100.00;99715.66;4589867;77;28465;-81
